createdAt,value
2022-09-18T00:01:13.213Z,95870.69
2022-09-18T00:03:41.156Z,95877.50
2022-09-18T00:06:13.660Z,95878.34
2022-09-18T00:08:43.847Z,95882.47
2022-09-18T00:11:14.448Z,95875.34
2022-09-18T00:13:42.138Z,95868.13
2022-09-18T00:16:11.591Z,95859.78
2022-09-18T00:18:38.858Z,95865.06
2022-09-18T00:21:09.858Z,95854.47
2022-09-18T00:23:37.107Z,95853.88
2022-09-18T00:26:05.399Z,95859.44
2022-09-18T00:28:32.968Z,95865.22
2022-09-18T00:31:18.888Z,95858.94
2022-09-18T00:33:45.886Z,95874.00
2022-09-18T00:36:16.163Z,95883.13
2022-09-18T00:38:43.077Z,95889.72
2022-09-18T00:41:15.035Z,95867.41
2022-09-18T00:43:41.737Z,95879.25
2022-09-18T00:46:32.504Z,95884.09
2022-09-18T00:49:16.807Z,95877.00
2022-09-18T00:51:45.907Z,95882.03
2022-09-18T00:54:44.218Z,95903.16
2022-09-18T00:57:16.217Z,95903.94
2022-09-18T00:59:45.429Z,95904.66
2022-09-18T01:02:13.102Z,95900.34
2022-09-18T01:04:39.868Z,95903.69
2022-09-18T01:07:36.129Z,95910.34
2022-09-18T01:10:03.001Z,95914.09
2022-09-18T01:12:51.066Z,95931.97
2022-09-18T01:15:17.637Z,95919.59
2022-09-18T01:18:22.016Z,95931.91
2022-09-18T01:21:10.084Z,95937.84
2022-09-18T01:23:55.287Z,95918.72
2022-09-18T01:26:54.975Z,95904.84
2022-09-18T01:29:43.611Z,95897.53
2022-09-18T01:32:25.482Z,95897.56
2022-09-18T01:35:06.400Z,95900.81
2022-09-18T01:37:41.074Z,95912.34
2022-09-18T01:40:32.105Z,95909.34
2022-09-18T01:43:02.982Z,95909.28
2022-09-18T01:45:33.719Z,95902.41
2022-09-18T01:48:07.060Z,95923.06
2022-09-18T01:50:39.803Z,95907.53
2022-09-18T01:53:13.398Z,95918.13
2022-09-18T01:55:45.662Z,95927.16
2022-09-18T01:58:19.110Z,95923.31
2022-09-18T02:00:51.447Z,95919.44
2022-09-18T02:03:26.287Z,95925.00
2022-09-18T02:05:57.962Z,95930.88
2022-09-18T02:08:38.904Z,95930.03
2022-09-18T02:11:12.724Z,95920.06
2022-09-18T02:13:54.419Z,95940.47
2022-09-18T02:16:46.940Z,95932.78
2022-09-18T02:19:23.080Z,95950.13
2022-09-18T02:21:52.625Z,95961.16
2022-09-18T02:24:22.784Z,95966.31
2022-09-18T02:26:52.039Z,95968.22
2022-09-18T02:29:22.092Z,95984.56
2022-09-18T02:31:50.079Z,95984.56
2022-09-18T02:34:18.920Z,95994.28
2022-09-18T02:37:26.012Z,95993.56
2022-09-18T02:40:19.309Z,95986.47
2022-09-18T02:42:57.857Z,95992.50
2022-09-18T02:45:39.755Z,95988.13
2022-09-18T02:48:09.202Z,95999.09
2022-09-18T02:51:09.799Z,96001.22
2022-09-18T02:53:46.343Z,96010.47
2022-09-18T02:56:18.113Z,96009.16
2022-09-18T02:58:51.324Z,96023.47
2022-09-18T03:01:20.899Z,96029.78
2022-09-18T03:03:48.080Z,96040.00
2022-09-18T03:06:14.815Z,96048.19
2022-09-18T03:08:41.438Z,96043.88
2022-09-18T03:11:08.103Z,96044.09
2022-09-18T03:13:34.968Z,96051.41
2022-09-18T03:16:01.901Z,96050.44
2022-09-18T03:18:28.711Z,96065.19
2022-09-18T03:20:55.359Z,96063.25
2022-09-18T03:23:23.628Z,96068.91
2022-09-18T03:25:51.024Z,96080.94
2022-09-18T03:28:18.224Z,96087.31
2022-09-18T03:30:45.530Z,96078.50
2022-09-18T03:33:12.273Z,96084.88
2022-09-18T03:35:39.022Z,96078.97
2022-09-18T03:38:05.645Z,96089.41
2022-09-18T03:40:32.351Z,96103.59
2022-09-18T03:42:58.981Z,96105.28
2022-09-18T03:45:25.897Z,96103.25
2022-09-18T03:47:52.562Z,96114.25
2022-09-18T03:50:19.194Z,96112.09
2022-09-18T03:52:50.965Z,96102.44
2022-09-18T03:55:18.073Z,96129.00
2022-09-18T03:57:46.462Z,96125.31
2022-09-18T04:00:14.407Z,96130.06
2022-09-18T04:02:41.944Z,96128.81
2022-09-18T04:05:10.297Z,96140.00
2022-09-18T04:07:36.937Z,96140.00
2022-09-18T04:10:04.094Z,96143.38
2022-09-18T04:12:30.805Z,96148.97
2022-09-18T04:14:57.378Z,96148.03
2022-09-18T04:17:24.174Z,96147.63
2022-09-18T04:19:53.623Z,96154.47
2022-09-18T04:22:21.870Z,96157.31
2022-09-18T04:24:50.553Z,96153.41
2022-09-18T04:27:17.830Z,96156.19
2022-09-18T04:29:44.932Z,96155.44
2022-09-18T04:32:11.576Z,96159.66
2022-09-18T04:34:38.193Z,96168.03
2022-09-18T04:37:09.421Z,96165.91
2022-09-18T04:39:36.945Z,96159.88
2022-09-18T04:42:04.144Z,96170.88
2022-09-18T04:44:31.090Z,96198.66
2022-09-18T04:46:57.876Z,96180.03
2022-09-18T04:49:24.502Z,96181.00
2022-09-18T04:51:51.162Z,96198.75
2022-09-18T04:54:17.920Z,96199.50
2022-09-18T04:56:44.563Z,96212.28
2022-09-18T04:59:13.069Z,96221.91
2022-09-18T05:01:39.822Z,96229.19
2022-09-18T05:04:06.961Z,96235.31
2022-09-18T05:06:34.172Z,96244.53
2022-09-18T05:09:00.870Z,96258.25
2022-09-18T05:11:28.423Z,96255.72
2022-09-18T05:13:56.928Z,96259.72
2022-09-18T05:16:24.472Z,96279.38
2022-09-18T05:18:52.483Z,96281.06
2022-09-18T05:21:20.004Z,96282.75
2022-09-18T05:23:47.117Z,96295.97
2022-09-18T05:26:16.353Z,96293.53
2022-09-18T05:28:47.042Z,96304.94
2022-09-18T05:31:13.769Z,96322.34
2022-09-18T05:33:41.811Z,96311.28
2022-09-18T05:36:09.025Z,96318.56
2022-09-18T05:38:35.873Z,96331.78
2022-09-18T05:41:03.251Z,96335.44
2022-09-18T05:43:30.615Z,96352.78
2022-09-18T05:45:58.019Z,96350.19
2022-09-18T05:48:24.641Z,96357.91
2022-09-18T05:50:52.217Z,96362.78
2022-09-18T05:53:21.516Z,96361.75
2022-09-18T05:55:48.569Z,96367.41
2022-09-18T05:58:17.888Z,96372.69
2022-09-18T06:00:45.251Z,96368.25
2022-09-18T06:03:14.689Z,96368.00
2022-09-18T06:05:42.385Z,96380.69
2022-09-18T06:08:11.587Z,96385.59
2022-09-18T06:10:39.935Z,96391.34
2022-09-18T06:13:18.314Z,96399.63
2022-09-18T06:15:47.272Z,96407.06
2022-09-18T06:18:15.456Z,96409.81
2022-09-18T06:20:44.709Z,96415.06
2022-09-18T06:23:14.931Z,96421.00
2022-09-18T06:25:41.497Z,96423.44
2022-09-18T06:28:08.582Z,96424.41
2022-09-18T06:30:36.694Z,96427.69
2022-09-18T06:33:10.623Z,96433.91
2022-09-18T06:35:40.384Z,96441.16
2022-09-18T06:38:08.431Z,96453.22
2022-09-18T06:40:36.198Z,96448.84
2022-09-18T06:43:03.692Z,96452.63
2022-09-18T06:45:31.497Z,96451.97
2022-09-18T06:48:04.712Z,96455.56
2022-09-18T06:50:31.774Z,96459.69
2022-09-18T06:53:12.538Z,96464.59
2022-09-18T06:55:39.551Z,96468.00
2022-09-18T06:58:06.228Z,96472.69
2022-09-18T07:00:33.028Z,96478.81
2022-09-18T07:03:03.919Z,96472.63
2022-09-18T07:05:32.758Z,96483.72
2022-09-18T07:07:59.896Z,96479.59
2022-09-18T07:10:26.523Z,96481.09
2022-09-18T07:13:00.208Z,96476.22
2022-09-18T07:15:27.203Z,96481.00
2022-09-18T07:17:58.084Z,96479.78
2022-09-18T07:20:25.503Z,96486.59
2022-09-18T07:22:57.253Z,96482.22
2022-09-18T07:25:24.813Z,96488.91
2022-09-18T07:27:52.887Z,96497.47
2022-09-18T07:30:20.164Z,96504.47
2022-09-18T07:32:47.293Z,96500.03
2022-09-18T07:35:13.899Z,96512.38
2022-09-18T07:37:40.691Z,96503.16
2022-09-18T07:40:09.314Z,96507.47
2022-09-18T07:42:36.106Z,96517.66
2022-09-18T07:45:02.891Z,96514.53
2022-09-18T07:47:29.986Z,96516.88
2022-09-18T07:49:56.636Z,96516.88
2022-09-18T07:52:23.302Z,96513.50
2022-09-18T07:54:50.021Z,96523.41
2022-09-18T07:57:16.605Z,96513.22
2022-09-18T07:59:43.671Z,96521.59
2022-09-18T08:02:23.946Z,96520.63
2022-09-18T08:04:50.618Z,96521.69
2022-09-18T08:07:17.543Z,96525.63
2022-09-18T08:09:44.237Z,96514.75
2022-09-18T08:13:07.450Z,96533.03
2022-09-18T08:18:32.545Z,96517.78
2022-09-18T08:21:30.552Z,96513.91
2022-09-18T08:23:58.477Z,96524.53
2022-09-18T08:26:39.206Z,96523.69
2022-09-18T08:29:09.016Z,96518.53
2022-09-18T08:31:39.206Z,96521.72
2022-09-18T08:34:08.739Z,96511.22
2022-09-18T08:36:40.559Z,96521.19
2022-09-18T08:39:19.443Z,96518.47
2022-09-18T08:42:28.825Z,96516.97
2022-09-18T08:49:00.948Z,96512.03
2022-09-18T08:52:09.730Z,96514.66
2022-09-18T08:57:32.783Z,96520.22
2022-09-18T09:00:05.864Z,96510.88
2022-09-18T09:02:38.284Z,96517.78
2022-09-18T09:05:15.359Z,96515.97
2022-09-18T09:08:04.838Z,96528.31
2022-09-18T09:10:59.544Z,96523.22
2022-09-18T09:13:55.465Z,96526.69
2022-09-18T09:16:45.286Z,96533.47
2022-09-18T09:19:39.297Z,96532.31
2022-09-18T09:22:19.399Z,96528.69
2022-09-18T09:25:08.173Z,96529.31
2022-09-18T09:27:49.450Z,96526.66
2022-09-18T09:33:20.585Z,96528.06
2022-09-18T09:36:19.487Z,96528.84
2022-09-18T09:39:07.902Z,96526.97
2022-09-18T09:41:49.649Z,96545.34
2022-09-18T09:44:19.024Z,96542.34
2022-09-18T09:47:20.072Z,96542.16
2022-09-18T09:49:54.558Z,96540.03
2022-09-18T09:52:29.437Z,96543.09
2022-09-18T09:55:30.796Z,96553.31
2022-09-18T09:58:16.223Z,96548.81
2022-09-18T10:00:51.281Z,96559.16
2022-09-18T10:03:35.861Z,96558.69
2022-09-18T10:06:16.809Z,96552.00
2022-09-18T10:09:16.769Z,96564.25
2022-09-18T10:11:58.558Z,96558.53
2022-09-18T10:14:28.583Z,96565.69
2022-09-18T10:17:00.633Z,96558.72
2022-09-18T10:19:46.812Z,96568.09
2022-09-18T10:22:28.097Z,96564.88
2022-09-18T10:25:01.224Z,96567.91
2022-09-18T10:27:28.695Z,96574.00
2022-09-18T10:29:55.833Z,96570.75
2022-09-18T10:32:43.141Z,96580.69
2022-09-18T10:35:31.738Z,96590.56
2022-09-18T10:38:01.447Z,96588.06
2022-09-18T10:40:38.524Z,96599.53
2022-09-18T10:43:16.347Z,96603.78
2022-09-18T10:45:43.153Z,96598.03
2022-09-18T10:48:25.612Z,96619.41
2022-09-18T10:51:02.967Z,96606.38
2022-09-18T10:53:33.154Z,96600.97
2022-09-18T10:56:17.130Z,96622.28
2022-09-18T10:58:45.161Z,96617.53
2022-09-18T11:01:13.311Z,96621.88
2022-09-18T11:03:49.804Z,96641.31
2022-09-18T11:06:24.966Z,96626.84
2022-09-18T11:09:00.428Z,96631.56
2022-09-18T11:11:39.142Z,96626.03
2022-09-18T11:14:15.654Z,96618.44
2022-09-18T11:16:51.896Z,96628.75
2022-09-18T11:19:27.472Z,96620.78
2022-09-18T11:22:02.693Z,96654.75
2022-09-18T11:24:33.620Z,96642.84
2022-09-18T11:27:18.316Z,96658.97
2022-09-18T11:29:45.227Z,96669.94
2022-09-18T11:32:25.585Z,96688.84
2022-09-18T11:34:57.993Z,96691.72
2022-09-18T11:37:33.242Z,96693.22
2022-09-18T11:40:15.195Z,96725.00
2022-09-18T11:42:46.029Z,96753.13
2022-09-18T11:45:29.857Z,96751.97
2022-09-18T11:48:12.636Z,96761.41
2022-09-18T11:50:42.356Z,96744.28
2022-09-18T11:53:23.723Z,96744.66
2022-09-18T11:56:03.558Z,96743.75
2022-09-18T11:58:55.986Z,96737.53
2022-09-18T12:01:26.191Z,96742.16
2022-09-18T12:04:27.326Z,96743.69
2022-09-18T12:07:03.465Z,96754.34
2022-09-18T12:10:19.264Z,96762.75
2022-09-18T12:13:28.306Z,96773.03
2022-09-18T12:16:04.465Z,96770.56
2022-09-18T12:18:41.671Z,96773.59
2022-09-18T12:21:14.758Z,96773.59
2022-09-18T12:23:50.570Z,96785.69
2022-09-18T12:26:29.861Z,96789.00
2022-09-18T12:29:34.442Z,96784.56
2022-09-18T12:32:34.138Z,96796.81
2022-09-18T12:35:25.310Z,96809.13
2022-09-18T12:38:19.398Z,96813.69
2022-09-18T12:41:11.377Z,96815.28
2022-09-18T12:43:45.237Z,96827.97
2022-09-18T12:46:14.917Z,96845.28
2022-09-18T12:48:48.857Z,96845.00
2022-09-18T12:51:43.431Z,96851.72
2022-09-18T12:54:35.076Z,96835.19
2022-09-18T12:57:29.213Z,96817.69
2022-09-18T13:00:09.123Z,96810.78
2022-09-18T13:02:56.060Z,96807.41
2022-09-18T13:05:43.491Z,96817.47
2022-09-18T13:08:28.716Z,96816.50
2022-09-18T13:11:13.507Z,96821.97
2022-09-18T13:13:52.807Z,96819.72
2022-09-18T13:16:35.463Z,96822.06
2022-09-18T13:19:07.624Z,96821.41
2022-09-18T13:21:44.717Z,96821.00
2022-09-18T13:24:18.023Z,96814.84
2022-09-18T13:26:47.651Z,96822.16
2022-09-18T13:29:45.083Z,96822.66
2022-09-18T13:32:13.836Z,96822.16
2022-09-18T13:34:48.749Z,96817.16
2022-09-18T13:37:19.790Z,96815.09
2022-09-18T13:40:10.153Z,96813.59
2022-09-18T13:42:42.694Z,96811.44
2022-09-18T13:45:26.272Z,96811.50
2022-09-18T13:48:04.943Z,96812.41
2022-09-18T13:50:34.002Z,96828.56
2022-09-18T13:53:02.275Z,96808.91
2022-09-18T13:55:39.020Z,96828.94
2022-09-18T13:58:33.803Z,96812.56
2022-09-18T14:01:03.549Z,96822.22
2022-09-18T14:03:41.290Z,96818.03
2022-09-18T14:06:37.176Z,96833.31
2022-09-18T14:09:27.327Z,96821.25
2022-09-18T14:11:54.700Z,96819.78
2022-09-18T14:14:25.494Z,96826.19
2022-09-18T14:16:52.459Z,96831.75
2022-09-18T14:19:31.961Z,96829.00
2022-09-18T14:22:00.200Z,96825.03
2022-09-18T14:24:40.797Z,96825.91
2022-09-18T14:27:26.302Z,96833.22
2022-09-18T14:29:58.349Z,96835.69
2022-09-18T14:32:27.476Z,96840.50
2022-09-18T14:35:39.233Z,96825.53
2022-09-18T14:38:27.924Z,96831.25
2022-09-18T14:41:24.017Z,96819.91
2022-09-18T14:44:01.222Z,96838.50
2022-09-18T14:46:28.579Z,96838.59
2022-09-18T14:48:58.072Z,96850.34
2022-09-18T14:51:28.323Z,96838.50
2022-09-18T14:53:57.456Z,96853.16
2022-09-18T14:56:32.243Z,96860.28
2022-09-18T14:59:16.399Z,96850.94
2022-09-18T15:01:45.914Z,96860.56
2022-09-18T15:04:16.817Z,96865.75
2022-09-18T15:06:50.396Z,96863.22
2022-09-18T15:09:26.395Z,96861.28
2022-09-18T15:12:02.260Z,96864.81
2022-09-18T15:14:44.096Z,96868.59
2022-09-18T15:17:23.099Z,96877.91
2022-09-18T15:20:02.314Z,96890.25
2022-09-18T15:22:30.149Z,96888.97
2022-09-18T15:25:00.894Z,96898.13
2022-09-18T15:27:28.981Z,96904.34
2022-09-18T15:30:00.164Z,96905.63
2022-09-18T15:32:35.292Z,96895.72
2022-09-18T15:35:05.231Z,96892.59
2022-09-18T15:37:32.728Z,96890.22
2022-09-18T15:40:07.697Z,96890.84
2022-09-18T15:42:50.836Z,96899.56
2022-09-18T15:45:22.079Z,96899.94
2022-09-18T15:47:49.347Z,96909.88
2022-09-18T15:50:16.161Z,96925.00
2022-09-18T15:52:51.994Z,96927.88
2022-09-18T15:55:22.266Z,96939.13
2022-09-18T15:57:53.916Z,96925.75
2022-09-18T16:00:29.127Z,96940.06
2022-09-18T16:02:58.873Z,96932.22
2022-09-18T16:05:28.023Z,96935.34
2022-09-18T16:08:02.675Z,96932.69
2022-09-18T16:10:38.152Z,96944.81
2022-09-18T16:13:07.125Z,96936.34
2022-09-18T16:15:34.311Z,96938.94
2022-09-18T16:18:05.773Z,96937.44
2022-09-18T16:20:47.777Z,96942.06
2022-09-18T16:23:24.765Z,96941.63
2022-09-18T16:26:11.294Z,96959.25
2022-09-18T16:28:56.235Z,96948.84
2022-09-18T16:31:27.108Z,96948.38
2022-09-18T16:34:30.714Z,96960.00
2022-09-18T16:36:57.485Z,96951.56
2022-09-18T16:39:26.400Z,96960.34
2022-09-18T16:41:53.106Z,96960.53
2022-09-18T16:44:19.993Z,96962.88
2022-09-18T16:46:58.831Z,96967.97
2022-09-18T16:49:30.643Z,96969.47
2022-09-18T16:51:57.960Z,96980.78
2022-09-18T16:54:25.876Z,96981.97
2022-09-18T16:57:02.010Z,96982.94
2022-09-18T16:59:31.021Z,96975.69
2022-09-18T17:02:04.239Z,96987.84
2022-09-18T17:04:32.523Z,96975.38
2022-09-18T17:06:59.807Z,96982.53
2022-09-18T17:09:27.005Z,96984.75
2022-09-18T17:11:56.257Z,96972.72
2022-09-18T17:14:23.639Z,96983.91
2022-09-18T17:16:52.295Z,97009.78
2022-09-18T17:19:19.279Z,97002.13
2022-09-18T17:21:45.913Z,97005.03
2022-09-18T17:24:13.226Z,97012.47
2022-09-18T17:26:41.548Z,97011.97
2022-09-18T17:29:13.853Z,97013.09
2022-09-18T17:31:40.731Z,97018.31
2022-09-18T17:34:07.880Z,97021.88
2022-09-18T17:36:36.936Z,97027.56
2022-09-18T17:39:04.468Z,97031.59
2022-09-18T17:41:32.020Z,97039.81
2022-09-18T17:43:58.653Z,97039.19
2022-09-18T17:46:25.490Z,97046.94
2022-09-18T17:48:59.769Z,97046.94
2022-09-18T17:51:31.415Z,97060.47
2022-09-18T17:54:02.867Z,97061.47
2022-09-18T17:56:30.521Z,97056.75
2022-09-18T17:59:01.978Z,97060.88
2022-09-18T18:01:29.871Z,97071.94
2022-09-18T18:03:57.347Z,97070.59
2022-09-18T18:06:27.100Z,97078.19
2022-09-18T18:08:54.101Z,97069.59
2022-09-18T18:11:22.789Z,97065.50
2022-09-18T18:13:53.799Z,97081.19
2022-09-18T18:16:23.480Z,97078.47
2022-09-18T18:18:54.650Z,97073.53
2022-09-18T18:21:22.009Z,97080.50
2022-09-18T18:23:49.394Z,97085.91
2022-09-18T18:26:16.217Z,97082.47
2022-09-18T18:28:44.937Z,97090.34
2022-09-18T18:31:15.770Z,97093.06
2022-09-18T18:33:43.524Z,97089.38
2022-09-18T18:36:22.659Z,97094.41
2022-09-18T18:38:52.204Z,97091.94
2022-09-18T18:41:20.674Z,97106.28
2022-09-18T18:43:53.921Z,97100.97
2022-09-18T18:46:21.943Z,97105.44
2022-09-18T18:48:56.185Z,97095.88
2022-09-18T18:51:22.793Z,97099.13
2022-09-18T18:53:49.372Z,97110.09
2022-09-18T18:56:16.667Z,97120.00
2022-09-18T18:58:44.178Z,97124.16
2022-09-18T19:01:15.836Z,97134.34
2022-09-18T19:03:49.164Z,97118.81
2022-09-18T19:06:15.973Z,97119.81
2022-09-18T19:08:47.277Z,97120.09
2022-09-18T19:11:15.827Z,97120.78
2022-09-18T19:13:45.962Z,97123.78
2022-09-18T19:16:13.182Z,97126.91
2022-09-18T19:18:40.677Z,97128.34
2022-09-18T19:21:07.808Z,97133.44
2022-09-18T19:23:35.704Z,97133.13
2022-09-18T19:26:05.562Z,97131.06
2022-09-18T19:28:32.211Z,97123.72
2022-09-18T19:31:04.136Z,97124.34
2022-09-18T19:33:33.299Z,97129.09
2022-09-18T19:36:07.482Z,97134.53
2022-09-18T19:38:37.150Z,97134.44
2022-09-18T19:41:13.995Z,97141.53
2022-09-18T19:43:41.264Z,97141.78
2022-09-18T19:46:11.994Z,97144.56
2022-09-18T19:48:39.076Z,97149.00
2022-09-18T19:51:08.066Z,97149.06
2022-09-18T19:53:35.484Z,97147.63
2022-09-18T19:56:22.681Z,97145.28
2022-09-18T19:58:56.621Z,97141.25
2022-09-18T20:01:24.051Z,97149.63
2022-09-18T20:03:55.029Z,97142.63
2022-09-18T20:06:23.259Z,97145.28
2022-09-18T20:08:50.214Z,97137.91
2022-09-18T20:11:17.421Z,97136.59
2022-09-18T20:13:44.078Z,97132.31
2022-09-18T20:16:10.969Z,97138.34
2022-09-18T20:18:38.496Z,97131.13
2022-09-18T20:21:11.195Z,97135.88
2022-09-18T20:23:38.374Z,97135.50
2022-09-18T20:26:13.263Z,97135.22
2022-09-18T20:28:40.451Z,97137.97
2022-09-18T20:31:09.864Z,97134.19
2022-09-18T20:33:38.075Z,97129.09
2022-09-18T20:36:06.815Z,97136.50
2022-09-18T20:38:35.481Z,97138.19
2022-09-18T20:41:06.969Z,97141.16
2022-09-18T20:43:34.154Z,97133.75
2022-09-18T20:46:04.643Z,97127.63
2022-09-18T20:48:33.182Z,97122.34
2022-09-18T20:51:00.377Z,97131.13
2022-09-18T20:53:28.239Z,97138.88
2022-09-18T20:55:58.654Z,97121.50
2022-09-18T20:58:25.582Z,97129.59
2022-09-18T21:00:57.005Z,97130.44
2022-09-18T21:03:24.299Z,97126.09
2022-09-18T21:06:07.494Z,97123.38
2022-09-18T21:08:46.155Z,97118.44
2022-09-18T21:11:15.166Z,97114.94
2022-09-18T21:13:49.210Z,97119.28
2022-09-18T21:16:18.707Z,97127.19
2022-09-18T21:18:47.318Z,97121.91
2022-09-18T21:21:15.680Z,97119.19
2022-09-18T21:23:58.696Z,97125.25
2022-09-18T21:26:51.454Z,97127.25
2022-09-18T21:29:21.377Z,97133.88
2022-09-18T21:31:51.742Z,97136.75
2022-09-18T21:34:27.113Z,97125.56
2022-09-18T21:37:12.072Z,97139.72
2022-09-18T21:39:39.279Z,97133.91
2022-09-18T21:42:07.584Z,97137.69
2022-09-18T21:44:36.168Z,97137.78
2022-09-18T21:47:06.373Z,97140.75
2022-09-18T21:49:33.663Z,97140.19
2022-09-18T21:52:06.011Z,97135.16
2022-09-18T21:54:33.033Z,97137.97
2022-09-18T21:57:00.554Z,97140.34
2022-09-18T21:59:33.374Z,97138.50
2022-09-18T22:02:00.736Z,97135.38
2022-09-18T22:04:30.547Z,97138.56
2022-09-18T22:06:59.161Z,97134.94
2022-09-18T22:09:33.132Z,97134.47
2022-09-18T22:12:01.351Z,97132.91
2022-09-18T22:14:31.953Z,97124.06
2022-09-18T22:17:06.020Z,97119.25
2022-09-18T22:19:34.762Z,97126.59
2022-09-18T22:22:02.868Z,97126.53
2022-09-18T22:24:30.190Z,97124.59
2022-09-18T22:26:59.744Z,97121.22
2022-09-18T22:29:32.122Z,97125.94
2022-09-18T22:31:59.630Z,97124.25
2022-09-18T22:34:35.993Z,97126.28
2022-09-18T22:37:03.591Z,97121.06
2022-09-18T22:39:30.802Z,97119.41
2022-09-18T22:41:57.495Z,97118.84
2022-09-18T22:44:24.258Z,97126.38
2022-09-18T22:46:52.570Z,97129.16
2022-09-18T22:49:21.137Z,97133.63
2022-09-18T22:51:47.857Z,97132.13
2022-09-18T22:54:16.781Z,97127.88
2022-09-18T22:56:48.083Z,97125.16
2022-09-18T22:59:16.608Z,97123.69
2022-09-18T23:01:49.127Z,97130.22
2022-09-18T23:04:18.507Z,97131.56
2022-09-18T23:06:49.267Z,97137.91
2022-09-18T23:09:17.852Z,97133.72
2022-09-18T23:11:46.385Z,97126.81
2022-09-18T23:14:18.449Z,97133.28
2022-09-18T23:16:45.528Z,97139.84
2022-09-18T23:19:17.998Z,97140.25
2022-09-18T23:21:45.094Z,97136.84
2022-09-18T23:24:14.372Z,97137.81
2022-09-18T23:26:43.581Z,97142.50
2022-09-18T23:29:21.756Z,97143.47
2022-09-18T23:31:52.903Z,97140.22
2022-09-18T23:34:25.130Z,97139.41
2022-09-18T23:36:54.295Z,97149.22
2022-09-18T23:39:31.095Z,97151.97
2022-09-18T23:41:59.436Z,97150.31
2022-09-18T23:44:28.666Z,97153.88
2022-09-18T23:46:55.508Z,97154.81
2022-09-18T23:49:23.765Z,97148.75
2022-09-18T23:51:52.803Z,97144.47
2022-09-18T23:54:22.404Z,97153.56
2022-09-18T23:56:52.491Z,97147.31
2022-09-18T23:59:23.104Z,97154.28
